Time;durP1;ratioP1;P1;durP2;ratioP2;P2;SDS_P1;SDS_P2;PMS_P1;PMS_P2;Temp;Humidity;BMP_temperature;BMP_pressure;BME280_temperature;BME280_humidity;BME280_pressure;Samples;Min_cycle;Max_cycle;Signal;HPM_P1;HPM_P2
2022/02/28 00:00:08;;;;;;;0.50;0.40;;;5.30;99.90;;;;;;5038985;28;20199;-77
2022/02/28 00:02:36;;;;;;;0.50;0.40;;;5.30;99.90;;;;;;5042924;28;20195;-77
2022/02/28 00:05:03;;;;;;;0.50;0.40;;;5.30;99.90;;;;;;5041773;28;20220;-78
2022/02/28 00:07:30;;;;;;;1.23;0.90;;;5.20;99.90;;;;;;5043098;28;20246;-77
2022/02/28 00:09:57;;;;;;;0.50;0.40;;;5.20;99.90;;;;;;5036946;28;20199;-79
2022/02/28 00:12:23;;;;;;;0.50;0.50;;;5.30;99.90;;;;;;5039713;28;20199;-79
2022/02/28 00:14:50;;;;;;;3.13;0.82;;;5.20;99.90;;;;;;5039486;28;20191;-81
2022/02/28 00:17:17;;;;;;;0.50;0.50;;;5.20;99.90;;;;;;5040061;28;20665;-79
2022/02/28 00:19:45;;;;;;;1.25;1.15;;;5.10;99.90;;;;;;5043985;28;20219;-80
2022/02/28 00:22:11;;;;;;;0.50;0.50;;;5.20;99.90;;;;;;5042087;28;20293;-79
2022/02/28 00:24:38;;;;;;;0.50;0.40;;;5.20;99.90;;;;;;5040228;28;20203;-79
2022/02/28 00:27:05;;;;;;;0.50;0.40;;;5.20;99.90;;;;;;5040045;28;20222;-79
2022/02/28 00:29:32;;;;;;;1.30;1.20;;;5.10;99.90;;;;;;5039418;28;20223;-79
2022/02/28 00:31:58;;;;;;;0.60;0.50;;;5.10;99.90;;;;;;5038355;28;20617;-79
2022/02/28 00:34:25;;;;;;;0.60;0.60;;;5.00;99.90;;;;;;5039473;28;20689;-78
2022/02/28 00:36:56;;;;;;;0.60;0.50;;;5.10;99.90;;;;;;5039918;28;20227;-79
2022/02/28 00:39:22;;;;;;;0.50;0.40;;;5.00;99.90;;;;;;5039158;28;20207;-79
2022/02/28 00:41:49;;;;;;;0.85;0.85;;;5.00;99.90;;;;;;5040540;28;20230;-80
2022/02/28 00:44:16;;;;;;;0.50;0.40;;;4.90;99.90;;;;;;5039706;28;20199;-79
2022/02/28 00:46:42;;;;;;;0.50;0.40;;;4.90;99.90;;;;;;5040325;28;20249;-79
2022/02/28 00:49:09;;;;;;;0.50;0.40;;;4.80;99.90;;;;;;5039195;28;20775;-79
2022/02/28 00:51:36;;;;;;;0.50;0.40;;;4.80;99.90;;;;;;5040306;28;20226;-79
2022/02/28 00:54:05;;;;;;;3.10;0.50;;;4.70;99.90;;;;;;5039122;28;20670;-79
2022/02/28 00:56:32;;;;;;;0.55;0.52;;;4.80;99.90;;;;;;5039705;28;20203;-79
2022/02/28 00:58:58;;;;;;;0.50;0.40;;;4.80;99.90;;;;;;5038562;28;20238;-78
2022/02/28 01:01:25;;;;;;;0.93;0.82;;;4.70;99.90;;;;;;5039349;28;20191;-79
2022/02/28 01:03:52;;;;;;;0.90;0.90;;;4.80;99.90;;;;;;5039356;28;20195;-79
2022/02/28 01:06:18;;;;;;;0.50;0.40;;;4.80;99.90;;;;;;5039909;28;20202;-79
2022/02/28 01:08:45;;;;;;;0.50;0.40;;;4.90;99.90;;;;;;5039060;28;20222;-78
2022/02/28 01:11:14;;;;;;;0.50;0.50;;;4.80;99.90;;;;;;5039740;28;20207;-78
2022/02/28 01:13:40;;;;;;;0.70;0.68;;;4.70;99.90;;;;;;5040384;28;20199;-79
2022/02/28 01:16:07;;;;;;;0.70;0.70;;;4.70;99.90;;;;;;5039753;28;20195;-79
2022/02/28 01:18:34;;;;;;;0.50;0.40;;;4.80;99.90;;;;;;5040195;28;20219;-79
2022/02/28 01:21:00;;;;;;;0.88;0.88;;;4.90;99.90;;;;;;5039597;28;20196;-78
2022/02/28 01:23:27;;;;;;;0.68;0.68;;;4.90;99.90;;;;;;5040688;28;20203;-78
2022/02/28 01:25:54;;;;;;;0.50;0.40;;;4.80;99.90;;;;;;5040495;28;20273;-79
2022/02/28 01:28:22;;;;;;;1.70;1.60;;;4.80;99.90;;;;;;5039882;28;20276;-79
2022/02/28 01:30:49;;;;;;;0.75;0.75;;;4.80;99.90;;;;;;5039490;28;20199;-78
2022/02/28 01:33:17;;;;;;;0.50;0.40;;;4.90;99.90;;;;;;5038563;28;20191;-78
2022/02/28 01:35:44;;;;;;;2.03;1.92;;;5.00;99.90;;;;;;5039795;28;20199;-78
2022/02/28 01:38:10;;;;;;;0.50;0.40;;;4.90;99.90;;;;;;5039611;28;20238;-78
2022/02/28 01:40:37;;;;;;;0.60;0.60;;;4.90;99.90;;;;;;5038799;28;20253;-78
2022/02/28 01:43:04;;;;;;;0.60;0.50;;;4.90;99.90;;;;;;5038994;28;20230;-78
2022/02/28 01:45:32;;;;;;;0.60;0.40;;;4.90;99.90;;;;;;5038621;28;20202;-77
2022/02/28 01:47:59;;;;;;;0.88;0.70;;;5.00;99.90;;;;;;5039344;28;20219;-78
2022/02/28 01:50:27;;;;;;;0.50;0.40;;;5.00;99.90;;;;;;5038121;28;20202;-78
2022/02/28 01:52:54;;;;;;;1.17;1.17;;;5.00;99.90;;;;;;5038503;28;20263;-78
2022/02/28 01:55:23;;;;;;;1.92;1.83;;;5.10;99.90;;;;;;5038920;28;20569;-79
2022/02/28 01:57:50;;;;;;;1.40;1.15;;;5.10;99.90;;;;;;5039217;28;20747;-78
2022/02/28 02:00:20;;;;;;;0.93;0.70;;;5.00;99.90;;;;;;5038282;28;20191;-78
2022/02/28 02:02:49;;;;;;;0.50;0.40;;;5.00;99.90;;;;;;5038605;28;20195;-78
2022/02/28 02:05:15;;;;;;;6.40;0.88;;;4.90;99.90;;;;;;5039639;28;20207;-79
2022/02/28 02:07:42;;;;;;;0.93;0.93;;;4.90;99.90;;;;;;5038695;28;20196;-79
2022/02/28 02:10:12;;;;;;;0.60;0.60;;;4.80;99.90;;;;;;5037894;28;20672;-78
2022/02/28 02:12:39;;;;;;;0.70;0.70;;;4.80;99.90;;;;;;5039006;28;20199;-79
2022/02/28 02:15:07;;;;;;;0.50;0.50;;;4.80;99.90;;;;;;5038654;28;20199;-78
2022/02/28 02:17:35;;;;;;;2.53;1.95;;;4.90;99.90;;;;;;5038178;28;20341;-77
2022/02/28 02:20:04;;;;;;;0.50;0.40;;;4.80;99.90;;;;;;5037598;28;20187;-78
2022/02/28 02:22:31;;;;;;;0.50;0.50;;;4.80;99.90;;;;;;5038445;28;20591;-78
2022/02/28 02:24:57;;;;;;;1.95;1.85;;;4.80;99.90;;;;;;5038416;28;20196;-78
2022/02/28 02:27:24;;;;;;;0.50;0.40;;;4.80;99.90;;;;;;5038061;28;20199;-78
2022/02/28 02:29:51;;;;;;;0.50;0.40;;;4.70;99.90;;;;;;5036864;28;20218;-78
2022/02/28 02:32:19;;;;;;;0.50;0.40;;;4.60;99.90;;;;;;5035827;28;20199;-79
2022/02/28 02:34:46;;;;;;;0.50;0.40;;;4.70;99.90;;;;;;5038070;28;20191;-79
2022/02/28 02:37:15;;;;;;;2.08;1.98;;;4.70;99.90;;;;;;5037904;28;20194;-77
2022/02/28 02:39:43;;;;;;;2.78;0.93;;;4.70;99.90;;;;;;5036261;28;20214;-78
2022/02/28 02:42:10;;;;;;;0.50;0.40;;;4.70;99.90;;;;;;5036124;28;20272;-79
2022/02/28 02:44:37;;;;;;;1.55;1.45;;;4.70;99.90;;;;;;5036407;28;20210;-78
2022/02/28 02:47:05;;;;;;;2.00;1.50;;;4.70;99.90;;;;;;5037025;28;20225;-79
2022/02/28 02:49:32;;;;;;;1.63;1.52;;;4.70;99.90;;;;;;5036098;28;20215;-78
2022/02/28 02:51:58;;;;;;;0.50;0.40;;;4.70;99.90;;;;;;5036762;28;20204;-79
2022/02/28 02:54:26;;;;;;;0.50;0.40;;;4.60;99.90;;;;;;5036280;28;20707;-79
2022/02/28 02:56:53;;;;;;;1.25;1.15;;;4.60;99.90;;;;;;5036544;28;20205;-78
2022/02/28 02:59:20;;;;;;;0.65;0.60;;;4.50;99.90;;;;;;5035755;28;20215;-78
2022/02/28 03:01:46;;;;;;;0.50;0.40;;;4.50;99.90;;;;;;5036599;28;20195;-79
2022/02/28 03:04:13;;;;;;;1.25;1.15;;;4.40;99.90;;;;;;5036279;28;20222;-78
2022/02/28 03:06:40;;;;;;;0.50;0.40;;;4.30;99.90;;;;;;5035382;28;20203;-77
2022/02/28 03:09:12;;;;;;;0.50;0.50;;;4.30;99.90;;;;;;5034559;28;21071;-78
2022/02/28 03:11:40;;;;;;;0.50;0.40;;;4.30;99.90;;;;;;5035908;28;20656;-78
2022/02/28 03:14:07;;;;;;;0.50;0.43;;;4.20;99.90;;;;;;5035409;28;20664;-78
2022/02/28 03:16:34;;;;;;;0.50;0.40;;;4.10;99.90;;;;;;5034779;28;20200;-79
2022/02/28 03:19:00;;;;;;;0.50;0.40;;;4.10;99.90;;;;;;5034790;28;20215;-78
2022/02/28 03:21:27;;;;;;;0.50;0.40;;;4.10;99.90;;;;;;5035256;28;20202;-78
2022/02/28 03:23:54;;;;;;;0.50;0.40;;;4.00;99.90;;;;;;5035379;28;20195;-79
2022/02/28 03:26:21;;;;;;;0.50;0.50;;;4.00;99.90;;;;;;5034305;28;20198;-78
2022/02/28 03:28:49;;;;;;;0.50;0.40;;;3.90;99.90;;;;;;5034453;28;20288;-76
2022/02/28 03:31:15;;;;;;;0.80;0.77;;;3.80;99.90;;;;;;5034712;28;20234;-79
2022/02/28 03:33:42;;;;;;;1.25;0.93;;;3.70;99.90;;;;;;5033348;28;20206;-78
2022/02/28 03:36:09;;;;;;;0.70;0.70;;;3.70;99.90;;;;;;5034373;28;20194;-78
2022/02/28 03:38:36;;;;;;;0.50;0.40;;;3.70;99.90;;;;;;5037585;28;20212;-79
2022/02/28 03:41:02;;;;;;;0.50;0.50;;;3.70;99.90;;;;;;5039592;28;20664;-78
2022/02/28 03:43:29;;;;;;;0.50;0.40;;;3.70;99.90;;;;;;5040978;28;20199;-79
2022/02/28 03:45:57;;;;;;;0.50;0.40;;;3.80;99.90;;;;;;5041344;28;20211;-78
2022/02/28 03:48:24;;;;;;;0.50;0.40;;;3.80;99.90;;;;;;5041630;28;20223;-78
2022/02/28 03:50:50;;;;;;;1.55;1.45;;;3.70;99.90;;;;;;5040640;28;20205;-78
2022/02/28 03:53:17;;;;;;;0.50;0.40;;;3.60;99.90;;;;;;5041420;28;20229;-79
2022/02/28 03:55:44;;;;;;;0.50;0.40;;;3.60;99.90;;;;;;5040683;28;20199;-78
2022/02/28 03:58:10;;;;;;;1.05;1.05;;;3.60;99.90;;;;;;5045361;28;20219;-78
2022/02/28 04:00:37;;;;;;;0.85;0.85;;;3.50;99.90;;;;;;5044159;28;20202;-78
2022/02/28 04:03:05;;;;;;;0.50;0.40;;;3.50;99.90;;;;;;5045747;28;20273;-79
2022/02/28 04:05:32;;;;;;;0.50;0.40;;;3.50;99.90;;;;;;5045466;28;20195;-78
2022/02/28 04:07:58;;;;;;;0.50;0.50;;;3.50;99.90;;;;;;5045404;28;21133;-79
2022/02/28 04:10:25;;;;;;;1.35;1.25;;;3.50;99.90;;;;;;5076535;22;20225;-77
2022/02/28 04:12:52;;;;;;;0.50;0.40;;;3.40;99.90;;;;;;5063831;28;20194;-75
2022/02/28 04:15:18;;;;;;;0.50;0.50;;;3.40;99.90;;;;;;5054960;28;20193;-78
2022/02/28 04:17:45;;;;;;;1.13;1.02;;;3.40;99.90;;;;;;5055160;28;20209;-77
2022/02/28 04:20:13;;;;;;;0.60;0.50;;;3.40;99.90;;;;;;5054563;28;20313;-77
2022/02/28 04:22:40;;;;;;;0.50;0.40;;;3.40;99.90;;;;;;5055209;28;20205;-77
2022/02/28 04:25:08;;;;;;;0.60;0.60;;;3.40;99.90;;;;;;5055342;28;20210;-77
2022/02/28 04:27:35;;;;;;;0.50;0.50;;;3.40;99.90;;;;;;5054829;28;20684;-77
2022/02/28 04:30:02;;;;;;;0.50;0.50;;;3.40;99.90;;;;;;5054590;28;20307;-76
2022/02/28 04:32:29;;;;;;;0.50;0.40;;;3.40;99.90;;;;;;5053721;28;20283;-77
2022/02/28 04:34:55;;;;;;;0.50;0.40;;;3.40;99.90;;;;;;5055114;28;20205;-76
2022/02/28 04:37:23;;;;;;;1.13;1.02;;;3.40;99.90;;;;;;5054910;28;20204;-76
2022/02/28 04:39:50;;;;;;;0.50;0.40;;;3.30;99.90;;;;;;5054240;28;20214;-76
2022/02/28 04:42:17;;;;;;;0.88;0.82;;;3.30;99.90;;;;;;5054932;28;20206;-75
2022/02/28 04:44:44;;;;;;;0.50;0.40;;;3.30;99.90;;;;;;5055029;28;20576;-76
2022/02/28 04:47:10;;;;;;;0.50;0.50;;;3.30;99.90;;;;;;5055042;28;20195;-76
2022/02/28 04:49:37;;;;;;;0.50;0.40;;;3.30;99.90;;;;;;5053627;28;20230;-75
2022/02/28 04:52:04;;;;;;;0.50;0.40;;;3.30;99.90;;;;;;5054823;28;20195;-75
2022/02/28 04:54:33;;;;;;;1.35;1.35;;;3.20;99.90;;;;;;5054575;28;20194;-75
2022/02/28 04:56:59;;;;;;;0.60;0.60;;;3.10;99.90;;;;;;5054653;28;20202;-76
2022/02/28 04:59:26;;;;;;;0.50;0.40;;;3.20;99.90;;;;;;5053551;28;20268;-75
2022/02/28 05:01:53;;;;;;;0.70;0.50;;;3.20;99.90;;;;;;5054544;28;20205;-76
2022/02/28 05:04:19;;;;;;;0.50;0.40;;;3.10;99.90;;;;;;5054635;28;20199;-75
2022/02/28 05:06:46;;;;;;;0.60;0.60;;;3.10;99.90;;;;;;5054644;28;20200;-76
2022/02/28 05:09:12;;;;;;;0.50;0.50;;;3.00;99.90;;;;;;5053260;28;20270;-76
2022/02/28 05:11:40;;;;;;;1.95;1.67;;;3.00;99.90;;;;;;5055307;28;20197;-78
2022/02/28 05:14:09;;;;;;;0.50;0.40;;;2.90;99.90;;;;;;5055526;28;20231;-78
2022/02/28 05:16:36;;;;;;;0.50;0.40;;;2.90;99.90;;;;;;5055467;28;20199;-79
2022/02/28 05:19:02;;;;;;;0.50;0.40;;;2.80;99.90;;;;;;5053938;28;20252;-76
2022/02/28 05:21:29;;;;;;;0.50;0.40;;;2.80;99.90;;;;;;5054071;28;20675;-76
2022/02/28 05:23:56;;;;;;;0.50;0.40;;;2.80;99.90;;;;;;5053803;28;20202;-76
2022/02/28 05:26:22;;;;;;;0.50;0.40;;;2.80;99.90;;;;;;5054369;28;20260;-76
2022/02/28 05:28:50;;;;;;;0.50;0.40;;;2.70;99.90;;;;;;5053412;28;20630;-75
2022/02/28 05:31:17;;;;;;;0.50;0.40;;;2.50;99.90;;;;;;5053383;28;20205;-74
2022/02/28 05:33:44;;;;;;;0.50;0.40;;;2.50;99.90;;;;;;5052005;28;20253;-76
2022/02/28 05:36:11;;;;;;;0.50;0.40;;;2.30;99.90;;;;;;5054140;28;20251;-76
2022/02/28 05:38:37;;;;;;;0.50;0.40;;;2.20;99.90;;;;;;5054110;28;20201;-76
2022/02/28 05:41:05;;;;;;;0.50;0.40;;;2.10;99.90;;;;;;5053109;28;20222;-76
2022/02/28 05:43:32;;;;;;;0.50;0.40;;;1.90;99.90;;;;;;5053464;28;20614;-76
2022/02/28 05:46:00;;;;;;;0.50;0.43;;;1.80;99.90;;;;;;5053954;28;20202;-75
2022/02/28 05:48:26;;;;;;;0.50;0.45;;;1.80;99.90;;;;;;5054043;28;20199;-76
2022/02/28 05:50:53;;;;;;;0.50;0.40;;;1.80;99.90;;;;;;5054010;28;20221;-75
2022/02/28 05:53:20;;;;;;;0.50;0.40;;;1.70;99.90;;;;;;5054412;28;20205;-75
2022/02/28 05:55:46;;;;;;;1.05;1.00;;;1.50;99.90;;;;;;5054012;28;20556;-76
2022/02/28 05:58:14;;;;;;;0.50;0.40;;;1.50;99.90;;;;;;5053562;28;20764;-75
2022/02/28 06:00:41;;;;;;;0.50;0.40;;;1.40;99.90;;;;;;5057065;28;20216;-75
2022/02/28 06:03:09;;;;;;;0.50;0.40;;;1.20;99.90;;;;;;5067243;28;20665;-76
2022/02/28 06:05:35;;;;;;;0.50;0.40;;;1.10;99.90;;;;;;5073380;28;20195;-76
2022/02/28 06:08:02;;;;;;;0.50;0.40;;;1.10;99.90;;;;;;5073364;28;20610;-75
2022/02/28 06:10:29;;;;;;;0.50;0.40;;;1.00;99.90;;;;;;5072374;28;20231;-75
2022/02/28 06:12:56;;;;;;;0.60;0.40;;;0.90;99.90;;;;;;5072959;28;20206;-76
2022/02/28 06:15:22;;;;;;;0.60;0.50;;;0.90;99.90;;;;;;5072735;28;20195;-75
2022/02/28 06:17:49;;;;;;;0.50;0.40;;;1.00;99.90;;;;;;5073089;28;20206;-76
2022/02/28 06:20:17;;;;;;;0.50;0.50;;;1.10;99.90;;;;;;5071732;28;20217;-75
2022/02/28 06:22:44;;;;;;;0.50;0.50;;;1.10;99.90;;;;;;5072853;28;20204;-76
2022/02/28 06:25:11;;;;;;;0.50;0.40;;;1.20;99.90;;;;;;5073086;28;20278;-75
2022/02/28 06:27:38;;;;;;;0.50;0.40;;;1.40;99.90;;;;;;5072525;28;20655;-74
2022/02/28 06:30:06;;;;;;;0.50;0.40;;;1.40;99.90;;;;;;5070535;28;20215;-75
2022/02/28 06:32:34;;;;;;;0.50;0.40;;;1.30;99.90;;;;;;5060567;28;20219;-76
2022/02/28 06:35:01;;;;;;;0.50;0.40;;;1.20;99.90;;;;;;5070634;28;20685;-76
2022/02/28 06:37:29;;;;;;;0.50;0.40;;;1.20;99.90;;;;;;5072910;28;20196;-75
2022/02/28 06:39:55;;;;;;;0.50;0.50;;;1.10;99.90;;;;;;5071542;28;20220;-76
2022/02/28 06:42:22;;;;;;;0.50;0.40;;;1.00;99.90;;;;;;5072573;28;20662;-73
2022/02/28 06:44:49;;;;;;;0.50;0.40;;;1.00;99.90;;;;;;5072464;28;20294;-75
2022/02/28 06:47:16;;;;;;;0.50;0.40;;;1.00;99.90;;;;;;5072508;28;20203;-75
2022/02/28 06:49:42;;;;;;;0.50;0.40;;;1.00;99.90;;;;;;5072040;28;20220;-75
2022/02/28 06:52:09;;;;;;;0.50;0.40;;;1.00;99.90;;;;;;5072629;28;20209;-75
2022/02/28 06:54:37;;;;;;;0.50;0.40;;;1.00;99.90;;;;;;5070923;28;20718;-76
2022/02/28 06:57:04;;;;;;;0.50;0.40;;;1.10;99.90;;;;;;5072012;28;20194;-76
2022/02/28 06:59:31;;;;;;;0.50;0.40;;;1.10;99.90;;;;;;5071528;28;20792;-76
2022/02/28 07:01:58;;;;;;;0.50;0.40;;;1.20;99.90;;;;;;5072146;28;20223;-76
2022/02/28 07:04:24;;;;;;;0.50;0.40;;;1.20;99.90;;;;;;5072727;28;20196;-76
2022/02/28 07:06:51;;;;;;;0.50;0.40;;;1.30;99.90;;;;;;5071941;28;20193;-76
2022/02/28 07:09:18;;;;;;;0.50;0.40;;;1.50;99.90;;;;;;5071081;28;20219;-76
2022/02/28 07:11:46;;;;;;;0.50;0.40;;;1.70;99.90;;;;;;5071749;28;20710;-77
2022/02/28 07:14:13;;;;;;;0.60;0.50;;;1.80;99.90;;;;;;5072775;28;20207;-77
2022/02/28 07:16:40;;;;;;;0.50;0.40;;;2.00;99.90;;;;;;5072070;28;20204;-76
2022/02/28 07:19:07;;;;;;;0.50;0.40;;;2.10;99.90;;;;;;5071108;28;20273;-76
2022/02/28 07:21:33;;;;;;;0.50;0.50;;;2.20;99.90;;;;;;5071760;28;20192;-76
2022/02/28 07:24:01;;;;;;;0.50;0.40;;;2.40;99.90;;;;;;5072126;28;20196;-77
2022/02/28 07:26:29;;;;;;;0.50;0.40;;;2.50;99.90;;;;;;5072165;28;20295;-78
2022/02/28 07:28:58;;;;;;;0.50;0.40;;;2.60;99.90;;;;;;5071969;28;20204;-77
2022/02/28 07:31:24;;;;;;;1.15;1.05;;;2.80;99.90;;;;;;5073088;28;20629;-76
2022/02/28 07:33:51;;;;;;;0.50;0.40;;;2.90;99.90;;;;;;5071624;28;20664;-76
2022/02/28 07:36:18;;;;;;;0.50;0.40;;;3.00;99.90;;;;;;5072356;28;20193;-76
2022/02/28 07:38:45;;;;;;;0.50;0.40;;;3.20;99.90;;;;;;5071590;28;20194;-74
2022/02/28 07:41:11;;;;;;;0.50;0.40;;;3.70;99.90;;;;;;5071414;28;20736;-76
2022/02/28 07:43:38;;;;;;;0.50;0.40;;;4.20;99.90;;;;;;5071575;28;20205;-77
2022/02/28 07:46:06;;;;;;;0.50;0.40;;;5.00;99.90;;;;;;5071914;28;20732;-77
2022/02/28 07:48:33;;;;;;;0.50;0.40;;;6.00;99.90;;;;;;5072222;28;20248;-77
2022/02/28 07:51:00;;;;;;;0.50;0.40;;;6.90;99.90;;;;;;5070594;28;20218;-77
2022/02/28 07:53:26;;;;;;;2.45;2.25;;;7.80;99.90;;;;;;5070770;28;20544;-76
2022/02/28 07:55:53;;;;;;;0.50;0.40;;;8.40;99.90;;;;;;5070989;28;20196;-74
2022/02/28 07:58:20;;;;;;;0.50;0.40;;;9.10;99.90;;;;;;5072105;28;20256;-76
2022/02/28 08:00:46;;;;;;;1.40;1.30;;;10.20;97.30;;;;;;5071086;28;20216;-77
2022/02/28 08:03:14;;;;;;;0.50;0.40;;;11.60;91.90;;;;;;5071388;28;20231;-77
2022/02/28 08:05:41;;;;;;;0.50;0.40;;;12.50;82.30;;;;;;5071723;28;20197;-77
2022/02/28 08:08:08;;;;;;;0.50;0.40;;;12.80;75.50;;;;;;5071698;28;20242;-77
2022/02/28 08:10:36;;;;;;;0.50;0.40;;;13.30;72.90;;;;;;5070764;28;21056;-77
2022/02/28 08:13:02;;;;;;;0.50;0.40;;;14.30;70.80;;;;;;5071877;28;20440;-77
2022/02/28 08:15:29;;;;;;;0.50;0.40;;;15.30;68.30;;;;;;5066296;28;20452;-77
2022/02/28 08:17:56;;;;;;;0.60;0.60;;;16.70;64.00;;;;;;5051370;28;21158;-77
2022/02/28 08:20:24;;;;;;;0.50;0.40;;;18.20;62.50;;;;;;5050950;28;20445;-76
2022/02/28 08:22:50;;;;;;;0.50;0.30;;;18.60;55.80;;;;;;5051494;28;20440;-76
2022/02/28 08:25:17;;;;;;;0.50;0.30;;;18.30;53.00;;;;;;5051956;28;20463;-77
2022/02/28 08:27:44;;;;;;;0.50;0.30;;;18.40;52.30;;;;;;5051808;28;20502;-79
2022/02/28 08:30:11;;;;;;;0.50;0.40;;;19.30;52.70;;;;;;5050367;28;20484;-77
2022/02/28 08:32:38;;;;;;;0.60;0.50;;;20.50;52.60;;;;;;5051212;28;20499;-77
2022/02/28 08:35:05;;;;;;;0.60;0.40;;;20.90;48.50;;;;;;5051693;28;20437;-76
2022/02/28 08:37:33;;;;;;;0.60;0.50;;;19.80;46.50;;;;;;5051657;28;20441;-76
2022/02/28 08:40:01;;;;;;;0.50;0.30;;;17.70;45.70;;;;;;5050143;28;20503;-76
2022/02/28 08:42:27;;;;;;;1.27;0.83;;;17.90;48.20;;;;;;5052495;28;20808;-77
2022/02/28 08:44:54;;;;;;;1.47;1.40;;;18.20;47.20;;;;;;5055032;28;20450;-76
2022/02/28 08:47:21;;;;;;;1.17;1.10;;;17.30;46.50;;;;;;5055452;28;20516;-76
2022/02/28 08:49:48;;;;;;;10.20;2.30;;;17.60;46.20;;;;;;5053884;28;20517;-73
2022/02/28 08:52:14;;;;;;;1.67;0.83;;;17.10;45.50;;;;;;5054921;28;20934;-76
2022/02/28 08:54:42;;;;;;;0.60;0.50;;;18.00;46.00;;;;;;5053377;28;20436;-76
2022/02/28 08:57:09;;;;;;;1.07;0.97;;;19.00;45.90;;;;;;5055718;28;20506;-75
2022/02/28 08:59:36;;;;;;;4.50;2.30;;;18.90;44.60;;;;;;5062810;28;20467;-76
2022/02/28 09:02:04;;;;;;;0.90;0.90;;;18.00;45.00;;;;;;5075736;28;20498;-76
2022/02/28 09:04:31;;;;;;;0.70;0.70;;;16.60;45.40;;;;;;5076455;28;20852;-76
2022/02/28 09:06:58;;;;;;;1.63;1.57;;;17.20;47.10;;;;;;5074552;28;20469;-74
2022/02/28 09:09:25;;;;;;;3.07;2.30;;;17.80;45.80;;;;;;5073245;28;20558;-75
2022/02/28 09:11:54;;;;;;;0.60;0.60;;;17.50;45.50;;;;;;5074349;28;20479;-72
2022/02/28 09:14:20;;;;;;;4.70;2.50;;;16.80;45.80;;;;;;5071423;28;20791;-76
2022/02/28 09:16:47;;;;;;;2.60;1.80;;;16.50;46.60;;;;;;5065134;28;20498;-76
2022/02/28 09:19:14;;;;;;;4.53;3.03;;;16.70;46.90;;;;;;5071965;28;20492;-77
2022/02/28 09:21:41;;;;;;;0.70;0.70;;;16.80;46.20;;;;;;5074800;28;20982;-76
2022/02/28 09:24:08;;;;;;;0.90;0.90;;;16.80;46.10;;;;;;5071662;28;20837;-74
2022/02/28 09:26:36;;;;;;;3.03;1.67;;;16.60;46.20;;;;;;5063970;28;20440;-75
2022/02/28 09:29:05;;;;;;;1.23;1.13;;;17.60;46.20;;;;;;5073266;28;20443;-74
2022/02/28 09:31:32;;;;;;;0.50;0.40;;;18.80;45.50;;;;;;5073794;28;20896;-77
2022/02/28 09:33:59;;;;;;;3.13;1.13;;;18.60;44.60;;;;;;5073704;28;20440;-74
2022/02/28 09:36:26;;;;;;;2.43;2.23;;;18.20;44.50;;;;;;5072999;28;20506;-76
2022/02/28 09:38:52;;;;;;;0.60;0.60;;;18.00;44.50;;;;;;5073777;28;20459;-76
2022/02/28 09:41:19;;;;;;;0.60;0.60;;;18.30;45.00;;;;;;5073746;28;20451;-77
2022/02/28 09:43:46;;;;;;;0.50;0.40;;;18.80;45.80;;;;;;5074222;28;20436;-78
2022/02/28 09:46:14;;;;;;;0.70;0.50;;;19.30;45.50;;;;;;5073400;28;20461;-78
2022/02/28 09:48:41;;;;;;;3.43;2.60;;;18.90;43.60;;;;;;5074338;28;20442;-76
2022/02/28 09:51:08;;;;;;;0.50;0.40;;;18.20;44.20;;;;;;5072626;28;20973;-76
2022/02/28 09:53:34;;;;;;;1.37;0.50;;;18.30;45.30;;;;;;5073427;28;20440;-77
2022/02/28 09:56:02;;;;;;;0.87;0.87;;;17.80;44.00;;;;;;5082303;28;20791;-77
2022/02/28 09:58:30;;;;;;;2.10;0.67;;;17.60;45.20;;;;;;5094135;28;20443;-78
2022/02/28 10:00:57;;;;;;;1.27;0.80;;;17.40;45.00;;;;;;5092700;28;20456;-76
2022/02/28 10:03:26;;;;;;;0.50;0.30;;;17.00;45.50;;;;;;5094038;28;20489;-77
2022/02/28 10:05:58;;;;;;;4.93;2.70;;;16.80;45.20;;;;;;5092762;28;20447;-78
2022/02/28 10:08:25;;;;;;;1.23;1.23;;;16.30;45.40;;;;;;5093889;28;20893;-77
2022/02/28 10:10:52;;;;;;;1.10;0.70;;;16.40;46.60;;;;;;5107947;22;20510;-79
2022/02/28 10:13:28;;;;;;;0.80;0.80;;;15.20;46.00;;;;;;5030910;28;20442;-80
2022/02/28 10:15:56;;;;;;;0.90;0.90;;;14.60;47.10;;;;;;5038163;28;20521;-83
2022/02/28 10:18:27;;;;;;;4.07;1.57;;;14.00;47.90;;;;;;5036208;28;20473;-83
2022/02/28 10:20:54;;;;;;;0.60;0.50;;;13.90;48.80;;;;;;5037290;28;20458;-82
2022/02/28 10:23:24;;;;;;;0.70;0.70;;;13.50;48.40;;;;;;5037895;28;20450;-82
2022/02/28 10:25:53;;;;;;;1.10;1.00;;;13.20;48.70;;;;;;5037684;28;20438;-82
2022/02/28 10:28:22;;;;;;;0.50;0.40;;;13.40;48.80;;;;;;5038031;28;20511;-81
2022/02/28 10:30:57;;;;;;;0.73;0.70;;;13.20;48.60;;;;;;5036576;28;21010;-82
2022/02/28 10:33:31;;;;;;;0.50;0.30;;;13.30;49.70;;;;;;5037410;28;20426;-83
2022/02/28 10:36:11;;;;;;;0.50;0.40;;;14.10;49.30;;;;;;5036503;28;20476;-82
2022/02/28 10:38:43;;;;;;;0.70;0.70;;;14.70;48.90;;;;;;5036921;28;20504;-82
2022/02/28 10:41:17;;;;;;;0.50;0.40;;;14.70;48.30;;;;;;5036180;28;20983;-82
2022/02/28 10:43:45;;;;;;;2.40;1.67;;;15.30;49.40;;;;;;5037068;28;20434;-82
2022/02/28 10:46:17;;;;;;;1.90;1.80;;;15.70;47.60;;;;;;5036656;28;20464;-82
2022/02/28 10:48:55;;;;;;;1.37;1.27;;;15.60;46.70;;;;;;5036488;28;20449;-80
2022/02/28 10:51:22;;;;;;;1.23;1.13;;;15.10;47.00;;;;;;5037291;28;20477;-81
2022/02/28 10:53:48;;;;;;;2.10;1.27;;;14.90;46.50;;;;;;5036187;28;20446;-81
2022/02/28 10:56:15;;;;;;;0.93;0.70;;;14.60;47.30;;;;;;5036532;28;20863;-81
2022/02/28 10:58:42;;;;;;;0.73;0.73;;;14.50;47.50;;;;;;5036325;28;20854;-81
2022/02/28 11:01:08;;;;;;;0.50;0.40;;;15.30;47.90;;;;;;5035687;28;20457;-82
2022/02/28 11:03:46;;;;;;;1.53;1.33;;;16.20;46.70;;;;;;5037293;28;20524;-83
2022/02/28 11:06:20;;;;;;;0.60;0.60;;;17.10;46.00;;;;;;5036878;28;20456;-83
2022/02/28 11:08:47;;;;;;;1.27;1.17;;;17.70;45.20;;;;;;5036358;28;20501;-79
2022/02/28 11:11:15;;;;;;;0.50;0.30;;;18.00;43.80;;;;;;5036146;28;20489;-83
2022/02/28 11:13:43;;;;;;;0.70;0.50;;;17.40;44.40;;;;;;5036963;28;20438;-82
2022/02/28 11:16:13;;;;;;;1.00;0.90;;;18.20;45.00;;;;;;5037469;28;20440;-82
2022/02/28 11:18:41;;;;;;;0.70;0.60;;;17.90;44.20;;;;;;5035595;28;20478;-81
2022/02/28 11:21:08;;;;;;;0.60;0.40;;;17.50;43.80;;;;;;5035520;28;20458;-81
2022/02/28 11:23:39;;;;;;;0.83;0.83;;;16.70;43.60;;;;;;5036163;28;20432;-83
2022/02/28 11:26:06;;;;;;;0.50;0.40;;;16.40;44.50;;;;;;5036174;28;20440;-81
2022/02/28 11:28:32;;;;;;;3.70;2.20;;;16.60;45.40;;;;;;5036497;28;20448;-81
2022/02/28 11:31:02;;;;;;;0.50;0.40;;;17.10;45.20;;;;;;5034743;28;20495;-82
2022/02/28 11:33:29;;;;;;;1.20;1.10;;;17.30;44.40;;;;;;5036772;28;20441;-82
2022/02/28 11:35:56;;;;;;;0.50;0.30;;;18.10;44.50;;;;;;5036522;28;20445;-81
2022/02/28 11:38:44;;;;;;;0.50;0.40;;;19.10;44.50;;;;;;5036738;28;20480;-81
2022/02/28 11:41:11;;;;;;;0.70;0.67;;;19.70;44.60;;;;;;5035137;28;20465;-81
2022/02/28 11:43:39;;;;;;;1.13;1.03;;;20.30;43.00;;;;;;5036440;28;20923;-79
2022/02/28 11:46:18;;;;;;;0.50;0.40;;;20.20;42.10;;;;;;5036357;28;20464;-81
2022/02/28 11:48:46;;;;;;;0.70;0.70;;;20.00;42.10;;;;;;5036642;28;20496;-79
2022/02/28 11:51:36;;;;;;;0.50;0.40;;;20.40;42.30;;;;;;5036091;28;20474;-80
2022/02/28 11:54:06;;;;;;;0.87;0.70;;;19.00;41.90;;;;;;5032079;28;20871;-80
2022/02/28 11:56:58;;;;;;;0.50;0.40;;;18.90;42.10;;;;;;5036484;28;20437;-80
2022/02/28 11:59:33;;;;;;;0.50;0.40;;;18.80;42.90;;;;;;5035129;28;20434;-80
2022/02/28 12:02:06;;;;;;;0.50;0.30;;;19.20;42.50;;;;;;5035319;28;20963;-79
2022/02/28 12:04:38;;;;;;;0.50;0.40;;;19.70;43.10;;;;;;5035903;28;20442;-80
2022/02/28 12:07:06;;;;;;;6.23;1.47;;;19.90;42.80;;;;;;5035981;28;20484;-80
2022/02/28 12:09:42;;;;;;;1.37;0.70;;;19.90;41.70;;;;;;5034844;28;20445;-79
2022/02/28 12:12:14;;;;;;;1.90;1.80;;;19.90;42.80;;;;;;5035356;28;20543;-81
2022/02/28 12:15:13;;;;;;;0.50;0.40;;;19.80;41.50;;;;;;5035760;28;20495;-80
2022/02/28 12:18:03;;;;;;;2.97;2.30;;;19.20;42.50;;;;;;5036184;28;20847;-81
2022/02/28 12:20:32;;;;;;;2.00;1.90;;;19.20;41.50;;;;;;5039127;28;20516;-81
2022/02/28 12:23:25;;;;;;;0.50;0.30;;;19.20;42.40;;;;;;5040506;28;20438;-82
2022/02/28 12:26:16;;;;;;;0.50;0.40;;;20.00;41.60;;;;;;5040084;28;20513;-82
2022/02/28 12:28:49;;;;;;;1.77;1.67;;;21.10;41.50;;;;;;5024843;28;20496;-81
2022/02/28 12:31:31;;;;;;;1.40;1.30;;;21.40;40.70;;;;;;5038904;28;20560;-81
2022/02/28 12:34:05;;;;;;;0.50;0.30;;;21.20;41.80;;;;;;5039823;28;20440;-81
2022/02/28 12:36:33;;;;;;;0.70;0.43;;;21.70;41.80;;;;;;5040244;28;20530;-82
2022/02/28 12:39:03;;;;;;;0.50;0.40;;;21.90;40.50;;;;;;5038972;28;20492;-81
2022/02/28 12:41:33;;;;;;;0.50;0.40;;;21.80;41.10;;;;;;5039362;28;20959;-81
2022/02/28 12:44:02;;;;;;;0.50;0.40;;;21.40;40.60;;;;;;5039680;28;20438;-82
2022/02/28 12:46:31;;;;;;;4.00;3.80;;;21.90;41.20;;;;;;5034287;28;20456;-80
2022/02/28 12:48:59;;;;;;;0.70;0.53;;;21.70;40.10;;;;;;5037550;28;20442;-80
2022/02/28 12:51:28;;;;;;;2.40;2.20;;;21.90;40.30;;;;;;5035673;28;20482;-81
2022/02/28 12:54:03;;;;;;;1.27;1.17;;;21.70;40.50;;;;;;5031979;28;20438;-82
2022/02/28 12:56:31;;;;;;;1.70;1.60;;;21.20;39.20;;;;;;5039930;28;20513;-82